createdAt,value
2023-04-08T00:00:56.202Z,15.27
2023-04-08T00:03:24.661Z,27.25
2023-04-08T00:05:53.172Z,17.50
2023-04-08T00:08:21.579Z,17.38
2023-04-08T00:10:49.988Z,47.63
2023-04-08T00:13:18.470Z,18.75
2023-04-08T00:15:46.921Z,28.83
2023-04-08T00:18:16.952Z,16.77
2023-04-08T00:20:45.459Z,38.78
2023-04-08T00:23:13.937Z,16.30
2023-04-08T00:25:42.434Z,29.75
2023-04-08T00:28:11.180Z,32.25
2023-04-08T00:30:39.578Z,27.48
2023-04-08T00:33:08.846Z,23.38
2023-04-08T00:35:37.508Z,24.30
2023-04-08T00:38:08.086Z,33.40
2023-04-08T00:40:36.570Z,39.22
2023-04-08T00:43:04.985Z,26.65
2023-04-08T00:45:33.960Z,29.25
2023-04-08T00:48:03.828Z,42.08
2023-04-08T00:50:32.302Z,20.58
2023-04-08T00:53:00.909Z,29.10
2023-04-08T00:55:29.368Z,27.55
2023-04-08T00:57:58.366Z,31.15
2023-04-08T01:00:29.531Z,25.98
2023-04-08T01:03:03.852Z,28.42
2023-04-08T01:05:53.838Z,29.67
2023-04-08T01:08:25.198Z,36.42
2023-04-08T01:10:58.675Z,33.08
2023-04-08T01:13:31.389Z,36.25
2023-04-08T01:15:59.950Z,46.13
2023-04-08T01:18:30.904Z,47.03
2023-04-08T01:21:00.700Z,49.38
2023-04-08T01:23:58.989Z,42.22
2023-04-08T01:26:28.722Z,43.53
2023-04-08T01:29:00.690Z,50.55
2023-04-08T01:31:32.080Z,29.63
2023-04-08T01:34:04.555Z,36.63
2023-04-08T01:36:35.961Z,29.02
2023-04-08T01:39:06.727Z,47.72
2023-04-08T01:41:36.592Z,35.50
2023-04-08T01:44:05.678Z,32.35
2023-04-08T01:46:34.962Z,34.50
2023-04-08T01:49:05.459Z,31.05
2023-04-08T01:51:34.739Z,39.95
2023-04-08T01:54:03.386Z,38.88
2023-04-08T01:56:37.926Z,35.72
2023-04-08T01:59:11.837Z,33.42
2023-04-08T02:01:42.902Z,69.10
2023-04-08T02:04:13.449Z,28.60
2023-04-08T02:06:42.181Z,26.08
2023-04-08T02:09:11.226Z,28.48
2023-04-08T02:11:39.637Z,28.50
2023-04-08T02:14:08.244Z,26.95
2023-04-08T02:16:46.596Z,43.28
2023-04-08T02:19:20.186Z,43.40
2023-04-08T02:21:55.320Z,29.58
2023-04-08T02:24:25.487Z,41.65
2023-04-08T02:26:56.571Z,40.53
2023-04-08T02:29:26.577Z,31.45
2023-04-08T02:31:56.289Z,39.60
2023-04-08T02:34:26.367Z,62.35
2023-04-08T02:36:54.833Z,48.05
2023-04-08T02:39:32.292Z,45.05
2023-04-08T02:42:01.140Z,35.63
2023-04-08T02:44:29.564Z,44.58
2023-04-08T02:46:58.021Z,48.42
2023-04-08T02:49:26.523Z,33.97
2023-04-08T02:51:54.951Z,42.08
2023-04-08T02:54:23.651Z,32.72
2023-04-08T02:56:52.107Z,38.45
2023-04-08T02:59:20.532Z,35.53
2023-04-08T03:01:49.175Z,40.17
2023-04-08T03:04:17.810Z,38.63
2023-04-08T03:06:46.299Z,61.10
2023-04-08T03:09:14.834Z,45.42
2023-04-08T03:11:44.776Z,42.00
2023-04-08T03:14:13.266Z,44.88
2023-04-08T03:16:41.671Z,41.60
2023-04-08T03:19:10.304Z,51.10
2023-04-08T03:21:38.797Z,40.63
2023-04-08T03:24:07.306Z,52.67
2023-04-08T03:26:35.682Z,49.47
2023-04-08T03:29:04.164Z,58.20
2023-04-08T03:31:33.213Z,56.45
2023-04-08T03:34:01.846Z,46.58
2023-04-08T03:36:31.138Z,64.60
2023-04-08T03:38:59.829Z,64.25
2023-04-08T03:41:28.258Z,64.15
2023-04-08T03:43:56.731Z,59.58
2023-04-08T03:46:25.372Z,55.28
2023-04-08T03:48:53.998Z,49.15
2023-04-08T03:51:22.498Z,60.78
2023-04-08T03:53:50.968Z,63.40
2023-04-08T03:56:19.416Z,63.97
2023-04-08T03:58:47.980Z,60.05
2023-04-08T04:01:16.725Z,73.82
2023-04-08T04:03:45.265Z,66.07
2023-04-08T04:06:13.780Z,63.97
2023-04-08T04:08:42.254Z,60.65
2023-04-08T04:11:10.892Z,65.50
2023-04-08T04:13:39.344Z,50.08
2023-04-08T04:16:07.863Z,64.22
2023-04-08T04:18:36.504Z,80.82
2023-04-08T04:21:08.053Z,66.93
2023-04-08T04:23:36.627Z,56.70
2023-04-08T04:26:09.807Z,51.70
2023-04-08T04:28:38.886Z,68.78
2023-04-08T04:31:07.356Z,54.90
2023-04-08T04:33:35.916Z,55.28
2023-04-08T04:36:04.407Z,65.70
2023-04-08T04:38:32.930Z,56.85
2023-04-08T04:41:01.719Z,56.15
2023-04-08T04:43:30.347Z,58.53
2023-04-08T04:45:59.347Z,72.80
2023-04-08T04:48:27.893Z,66.20
2023-04-08T04:50:57.445Z,57.30
2023-04-08T04:53:26.023Z,61.67
2023-04-08T04:55:55.255Z,67.28
2023-04-08T04:58:23.770Z,70.28
2023-04-08T05:00:52.188Z,64.55
2023-04-08T05:03:20.673Z,70.93
2023-04-08T05:05:53.349Z,72.40
2023-04-08T05:08:22.034Z,80.45
2023-04-08T05:10:50.825Z,87.20
2023-04-08T05:13:19.585Z,84.35
2023-04-08T05:15:48.277Z,96.03
2023-04-08T05:18:16.851Z,110.45
2023-04-08T05:20:45.993Z,98.45
2023-04-08T05:23:14.463Z,94.13
2023-04-08T05:25:44.028Z,102.35
2023-04-08T05:28:12.509Z,84.85
2023-04-08T05:30:40.938Z,68.10
2023-04-08T05:33:09.475Z,83.45
2023-04-08T05:35:38.054Z,80.45
2023-04-08T05:38:07.516Z,73.97
2023-04-08T05:40:36.162Z,66.72
2023-04-08T05:43:04.658Z,63.65
2023-04-08T05:45:33.132Z,58.10
2023-04-08T05:48:01.685Z,61.42
2023-04-08T05:50:30.193Z,58.08
2023-04-08T05:52:58.776Z,50.88
2023-04-08T05:55:27.685Z,47.78
2023-04-08T05:57:56.148Z,41.10
2023-04-08T06:00:24.581Z,47.63
2023-04-08T06:02:53.366Z,43.58
2023-04-08T06:05:21.992Z,44.13
2023-04-08T06:07:50.490Z,39.28
2023-04-08T06:10:19.056Z,46.65
2023-04-08T06:12:47.557Z,45.05
2023-04-08T06:15:16.631Z,41.80
2023-04-08T06:17:45.162Z,41.40
2023-04-08T06:20:13.657Z,35.35
2023-04-08T06:22:42.054Z,38.25
2023-04-08T06:25:10.528Z,26.05
2023-04-08T06:27:40.079Z,34.35
2023-04-08T06:30:09.213Z,37.90
2023-04-08T06:32:37.949Z,31.75
2023-04-08T06:35:07.703Z,41.47
2023-04-08T06:37:38.675Z,31.58
2023-04-08T06:40:07.857Z,27.65
2023-04-08T06:42:38.190Z,25.25
2023-04-08T06:45:07.612Z,23.30
2023-04-08T06:47:36.401Z,23.67
2023-04-08T06:50:05.691Z,31.27
2023-04-08T06:52:34.212Z,24.80
2023-04-08T06:55:02.681Z,19.77
2023-04-08T06:57:31.686Z,31.90
2023-04-08T07:00:00.502Z,26.30
2023-04-08T07:02:28.965Z,27.33
2023-04-08T07:04:57.697Z,29.15
2023-04-08T07:07:26.283Z,24.23
2023-04-08T07:09:54.961Z,24.25
2023-04-08T07:12:23.472Z,38.90
2023-04-08T07:14:53.135Z,27.63
2023-04-08T07:17:21.697Z,25.80
2023-04-08T07:19:50.488Z,19.23
2023-04-08T07:22:18.932Z,25.55
2023-04-08T07:24:49.840Z,25.17
2023-04-08T07:27:18.407Z,24.25
2023-04-08T07:29:46.857Z,33.88
2023-04-08T07:32:16.125Z,27.90
2023-04-08T07:34:44.539Z,35.38
2023-04-08T07:37:13.034Z,28.88
2023-04-08T07:39:41.437Z,30.65
2023-04-08T07:42:10.010Z,33.03
2023-04-08T07:44:38.541Z,24.20
2023-04-08T07:47:07.151Z,25.83
2023-04-08T07:49:35.563Z,19.45
2023-04-08T07:52:04.209Z,27.48
2023-04-08T07:54:36.030Z,24.48
2023-04-08T07:57:04.513Z,28.67
2023-04-08T07:59:32.985Z,46.03
2023-04-08T08:02:01.612Z,29.40
2023-04-08T08:04:30.283Z,29.38
2023-04-08T08:06:58.869Z,26.50
2023-04-08T08:09:27.660Z,29.75
2023-04-08T08:11:56.137Z,32.00
2023-04-08T08:14:26.659Z,30.95
2023-04-08T08:16:55.165Z,26.83
2023-04-08T08:19:23.740Z,32.75
2023-04-08T08:21:52.238Z,33.65
2023-04-08T08:24:20.872Z,29.08
2023-04-08T08:26:49.432Z,31.70
2023-04-08T08:29:17.905Z,28.98
2023-04-08T08:31:48.520Z,36.03
2023-04-08T08:34:17.010Z,40.28
2023-04-08T08:36:45.521Z,46.70
2023-04-08T08:39:14.235Z,61.72
2023-04-08T08:41:42.733Z,39.08
2023-04-08T08:44:12.762Z,35.17
2023-04-08T08:46:44.922Z,28.40
2023-04-08T08:51:43.027Z,36.15
2023-04-08T08:54:11.602Z,28.20
2023-04-08T08:56:40.178Z,29.48
2023-04-08T08:59:09.449Z,28.67
2023-04-08T09:01:40.696Z,30.23
2023-04-08T09:04:16.715Z,26.08
2023-04-08T09:06:47.455Z,23.42
2023-04-08T09:09:15.992Z,30.77
2023-04-08T09:11:46.488Z,25.55
2023-04-08T09:14:33.330Z,24.90
2023-04-08T09:17:02.546Z,25.85
2023-04-08T09:19:31.037Z,24.15
2023-04-08T09:22:10.834Z,22.95
2023-04-08T09:24:39.290Z,27.33
2023-04-08T09:27:07.795Z,28.20
2023-04-08T09:29:39.599Z,22.92
2023-04-08T09:32:08.577Z,28.65
2023-04-08T09:34:37.569Z,24.40
2023-04-08T09:37:07.175Z,27.05
2023-04-08T09:39:35.793Z,32.85
2023-04-08T09:42:10.521Z,29.25
2023-04-08T09:44:40.490Z,27.83
2023-04-08T09:47:18.528Z,29.13
2023-04-08T09:49:55.199Z,25.98
2023-04-08T09:53:06.499Z,26.40
2023-04-08T09:55:37.336Z,24.33
2023-04-08T09:58:16.178Z,38.42
2023-04-08T10:00:50.663Z,21.70
2023-04-08T10:03:33.734Z,28.90
2023-04-08T10:06:03.561Z,38.53
2023-04-08T10:08:33.028Z,32.65
2023-04-08T10:11:01.851Z,27.33
2023-04-08T10:13:31.833Z,25.88
2023-04-08T10:16:25.881Z,24.58
2023-04-08T10:18:58.124Z,26.00
2023-04-08T10:21:39.599Z,43.47
2023-04-08T10:24:11.949Z,30.45
2023-04-08T10:26:45.058Z,30.65
2023-04-08T10:29:19.425Z,31.80
2023-04-08T10:31:50.499Z,25.35
2023-04-08T10:34:27.094Z,27.08
2023-04-08T10:36:59.008Z,27.50
2023-04-08T10:39:28.121Z,23.52
2023-04-08T10:41:56.627Z,26.33
2023-04-08T10:44:26.890Z,25.05
2023-04-08T10:46:55.713Z,26.02
2023-04-08T10:49:33.181Z,21.75
2023-04-08T10:52:06.947Z,23.60
2023-04-08T10:54:36.674Z,26.45
2023-04-08T10:57:05.975Z,18.75
2023-04-08T10:59:34.475Z,29.52
2023-04-08T11:02:03.487Z,21.17
2023-04-08T11:04:32.031Z,23.20
2023-04-08T11:07:05.828Z,25.58
2023-04-08T11:09:34.317Z,26.13
2023-04-08T11:12:03.684Z,24.58
2023-04-08T11:14:33.263Z,24.60
2023-04-08T11:17:02.505Z,27.10
2023-04-08T11:19:31.016Z,23.38
2023-04-08T11:21:59.573Z,21.92
2023-04-08T11:24:28.559Z,26.23
2023-04-08T11:26:57.141Z,23.27
2023-04-08T11:29:25.604Z,25.27
2023-04-08T11:31:54.760Z,24.98
2023-04-08T11:34:24.664Z,20.92
2023-04-08T11:36:53.314Z,19.95
2023-04-08T11:39:24.596Z,19.35
2023-04-08T11:41:53.261Z,23.52
2023-04-08T11:44:31.024Z,21.15
2023-04-08T11:46:59.626Z,18.45
2023-04-08T11:49:28.293Z,19.02
2023-04-08T11:51:59.196Z,27.33
2023-04-08T11:54:32.632Z,19.08
2023-04-08T11:57:03.078Z,19.88
2023-04-08T11:59:31.479Z,22.23
2023-04-08T12:02:00.147Z,20.27
2023-04-08T12:04:30.034Z,19.45
2023-04-08T12:06:58.747Z,19.95
2023-04-08T12:09:27.471Z,17.65
2023-04-08T12:11:56.838Z,18.70
2023-04-08T12:14:27.714Z,20.20
2023-04-08T12:16:56.826Z,23.40
2023-04-08T12:19:25.319Z,18.67
2023-04-08T12:21:53.717Z,18.58
2023-04-08T12:24:22.319Z,17.27
2023-04-08T12:26:50.790Z,19.80
2023-04-08T12:29:19.298Z,21.35
2023-04-08T12:31:47.759Z,15.65
2023-04-08T12:34:17.191Z,15.77
2023-04-08T12:36:46.116Z,19.38
2023-04-08T12:39:14.658Z,17.38
2023-04-08T12:41:43.079Z,14.07
2023-04-08T12:44:11.483Z,15.70
2023-04-08T12:46:40.072Z,15.32
2023-04-08T12:49:09.194Z,16.23
2023-04-08T12:51:37.994Z,19.15
2023-04-08T12:54:06.426Z,12.82
2023-04-08T12:56:35.078Z,15.48
2023-04-08T12:59:03.592Z,15.27
2023-04-08T13:01:32.168Z,15.27
2023-04-08T13:04:00.869Z,15.00
2023-04-08T13:06:29.509Z,13.23
2023-04-08T13:08:57.991Z,15.25
2023-04-08T13:11:26.547Z,17.77
2023-04-08T13:13:54.967Z,16.73
2023-04-08T13:16:23.557Z,13.05
2023-04-08T13:18:52.586Z,12.73
2023-04-08T13:21:21.491Z,14.07
2023-04-08T13:23:49.873Z,18.70
2023-04-08T13:26:18.310Z,25.27
2023-04-08T13:28:56.583Z,18.08
2023-04-08T13:31:26.142Z,15.93
2023-04-08T13:33:57.537Z,17.25
2023-04-08T13:36:28.414Z,19.83
2023-04-08T13:38:57.170Z,17.33
2023-04-08T13:41:26.228Z,18.20
2023-04-08T13:43:54.876Z,23.38
2023-04-08T13:46:23.548Z,22.42
2023-04-08T13:48:52.400Z,20.13
2023-04-08T13:51:21.098Z,17.02
2023-04-08T13:53:49.546Z,19.30
2023-04-08T13:56:18.056Z,17.55
2023-04-08T13:58:55.184Z,15.65
2023-04-08T14:01:25.484Z,17.88
2023-04-08T14:03:54.066Z,17.95
2023-04-08T14:06:22.646Z,19.05
2023-04-08T14:08:51.478Z,23.65
2023-04-08T14:11:21.226Z,21.52
2023-04-08T14:13:49.748Z,18.42
2023-04-08T14:16:18.328Z,19.60
2023-04-08T14:18:46.832Z,16.55
2023-04-08T14:21:16.075Z,20.13
2023-04-08T14:23:44.565Z,19.13
2023-04-08T14:26:12.994Z,21.33
2023-04-08T14:28:41.597Z,19.70
2023-04-08T14:31:10.381Z,21.02
2023-04-08T14:33:39.583Z,21.45
2023-04-08T14:36:09.214Z,18.05
2023-04-08T14:38:39.195Z,20.67
2023-04-08T14:41:08.105Z,18.48
2023-04-08T14:43:36.718Z,22.50
2023-04-08T14:46:05.420Z,19.05
2023-04-08T14:48:33.909Z,23.13
2023-04-08T14:51:02.379Z,22.33
2023-04-08T14:53:31.078Z,20.27
2023-04-08T14:56:00.181Z,14.25
2023-04-08T14:58:28.804Z,18.33
2023-04-08T15:00:57.266Z,14.20
2023-04-08T15:03:26.041Z,13.77
2023-04-08T15:05:55.792Z,12.73
2023-04-08T15:08:24.414Z,19.90
2023-04-08T15:10:52.934Z,14.40
2023-04-08T15:13:21.406Z,17.50
2023-04-08T15:15:49.960Z,30.13
2023-04-08T15:18:18.532Z,11.98
2023-04-08T15:20:47.092Z,12.82
2023-04-08T15:23:15.540Z,12.27
2023-04-08T15:25:44.035Z,14.02
2023-04-08T15:28:12.774Z,15.15
2023-04-08T15:30:41.204Z,15.85
2023-04-08T15:33:09.893Z,15.45
2023-04-08T15:35:38.817Z,15.25
2023-04-08T15:38:07.763Z,29.95
2023-04-08T15:40:36.588Z,16.50
2023-04-08T15:43:05.195Z,16.40
2023-04-08T15:45:33.628Z,18.38
2023-04-08T15:48:02.181Z,16.52
2023-04-08T15:50:30.969Z,11.68
2023-04-08T15:52:59.450Z,12.02
2023-04-08T15:55:28.051Z,15.25
2023-04-08T15:57:57.181Z,12.85
2023-04-08T16:00:26.041Z,13.90
2023-04-08T16:02:54.632Z,20.65
2023-04-08T16:05:23.661Z,16.95
2023-04-08T16:07:52.503Z,14.98
2023-04-08T16:10:21.006Z,18.35
2023-04-08T16:12:49.503Z,11.32
2023-04-08T16:15:18.595Z,19.88
2023-04-08T16:17:51.874Z,12.65
2023-04-08T16:20:20.982Z,15.20
2023-04-08T16:22:50.302Z,28.00
2023-04-08T16:25:18.880Z,22.52
2023-04-08T16:27:50.254Z,10.57
2023-04-08T16:30:18.814Z,12.35
2023-04-08T16:32:47.355Z,10.05
2023-04-08T16:35:17.018Z,14.18
2023-04-08T16:37:45.701Z,11.63
2023-04-08T16:40:14.108Z,10.25
2023-04-08T16:42:42.543Z,15.70
2023-04-08T16:45:11.276Z,10.15
2023-04-08T16:47:41.724Z,14.50
2023-04-08T16:50:10.757Z,11.45
2023-04-08T16:52:39.264Z,7.82
2023-04-08T16:55:08.282Z,12.18
2023-04-08T16:57:36.878Z,10.73
2023-04-08T17:00:06.306Z,11.85
2023-04-08T17:02:34.995Z,10.80
2023-04-08T17:05:03.942Z,17.90
2023-04-08T17:07:32.843Z,8.20
2023-04-08T17:10:01.631Z,8.57
2023-04-08T17:12:30.203Z,10.43
2023-04-08T17:14:58.706Z,9.95
2023-04-08T17:17:27.246Z,15.70
2023-04-08T17:19:55.800Z,15.60
2023-04-08T17:22:24.446Z,15.93
2023-04-08T17:24:53.114Z,14.80
2023-04-08T17:27:21.851Z,7.93
2023-04-08T17:29:56.323Z,11.98
2023-04-08T17:32:24.959Z,8.45
2023-04-08T17:34:54.020Z,10.80
2023-04-08T17:37:22.497Z,12.05
2023-04-08T17:39:51.629Z,34.58
2023-04-08T17:42:22.705Z,13.07
2023-04-08T17:44:51.180Z,11.15
2023-04-08T17:47:20.939Z,9.98
2023-04-08T17:49:49.396Z,11.35
2023-04-08T17:52:17.792Z,11.70
2023-04-08T17:54:46.298Z,14.55
2023-04-08T17:57:14.741Z,63.00
2023-04-08T17:59:43.282Z,13.25
2023-04-08T18:02:11.750Z,35.25
2023-04-08T18:04:41.461Z,15.05
2023-04-08T18:07:09.874Z,22.52
2023-04-08T18:09:38.427Z,17.20
2023-04-08T18:12:07.299Z,15.73
2023-04-08T18:14:35.893Z,45.03
2023-04-08T18:17:04.460Z,16.75
2023-04-08T18:19:32.950Z,15.95
2023-04-08T18:22:01.493Z,14.65
2023-04-08T18:24:29.909Z,11.05
2023-04-08T18:27:04.323Z,27.15
2023-04-08T18:29:33.362Z,30.85
2023-04-08T18:32:01.976Z,31.80
2023-04-08T18:34:31.870Z,18.17
2023-04-08T18:37:00.786Z,38.50
2023-04-08T18:39:29.192Z,14.70
2023-04-08T18:41:57.773Z,22.40
2023-04-08T18:44:26.245Z,87.78
2023-04-08T18:46:54.666Z,15.07
2023-04-08T18:49:23.453Z,18.48
2023-04-08T18:52:01.828Z,30.95
2023-04-08T18:54:32.031Z,22.17
2023-04-08T18:57:00.757Z,19.92
2023-04-08T18:59:29.918Z,24.10
2023-04-08T19:01:58.500Z,16.27
2023-04-08T19:04:27.415Z,19.23
2023-04-08T19:06:56.398Z,17.90
2023-04-08T19:09:24.929Z,23.08
2023-04-08T19:11:53.326Z,14.35
2023-04-08T19:14:21.761Z,26.15
2023-04-08T19:16:50.331Z,26.33
2023-04-08T19:19:18.858Z,14.05
2023-04-08T19:21:48.919Z,20.98
2023-04-08T19:24:17.463Z,18.25
2023-04-08T19:26:46.148Z,24.25
2023-04-08T19:29:14.595Z,15.45
2023-04-08T19:31:43.260Z,16.10
2023-04-08T19:34:11.827Z,19.92
2023-04-08T19:36:40.403Z,16.45
2023-04-08T19:39:08.889Z,14.77
2023-04-08T19:41:37.378Z,15.98
2023-04-08T19:44:05.972Z,25.17
2023-04-08T19:46:34.370Z,20.63
2023-04-08T19:49:03.169Z,23.75
2023-04-08T19:51:32.763Z,14.68
2023-04-08T19:54:01.375Z,18.67
2023-04-08T19:56:33.799Z,16.38
2023-04-08T19:59:02.409Z,17.35
2023-04-08T20:01:31.459Z,25.80
2023-04-08T20:04:00.203Z,21.55
2023-04-08T20:06:28.761Z,18.10
2023-04-08T20:08:57.453Z,22.92
2023-04-08T20:11:25.960Z,28.85
2023-04-08T20:13:54.334Z,15.65
2023-04-08T20:16:22.911Z,15.73
2023-04-08T20:18:51.991Z,26.95
2023-04-08T20:21:20.895Z,20.30
2023-04-08T20:23:49.301Z,20.35
2023-04-08T20:26:17.754Z,19.92
2023-04-08T20:28:46.680Z,15.88
2023-04-08T20:31:15.925Z,31.23
2023-04-08T20:33:45.390Z,15.45
2023-04-08T20:36:14.120Z,17.02
2023-04-08T20:38:42.898Z,13.20
2023-04-08T20:41:11.426Z,18.85
2023-04-08T20:43:39.876Z,15.93
2023-04-08T20:46:09.176Z,14.35
2023-04-08T20:48:37.759Z,14.27
2023-04-08T20:51:06.558Z,16.92
2023-04-08T20:53:35.288Z,13.63
2023-04-08T20:56:04.244Z,13.52
2023-04-08T20:58:32.630Z,17.85
2023-04-08T21:01:01.224Z,18.00
2023-04-08T21:03:29.894Z,16.00
2023-04-08T21:05:58.529Z,20.42
2023-04-08T21:08:26.972Z,25.38
2023-04-08T21:10:55.597Z,13.75
2023-04-08T21:13:24.553Z,15.80
2023-04-08T21:15:53.015Z,14.02
2023-04-08T21:18:21.413Z,15.38
2023-04-08T21:20:49.925Z,26.88
2023-04-08T21:23:18.396Z,17.02
2023-04-08T21:25:46.821Z,15.52
2023-04-08T21:28:15.569Z,18.48
2023-04-08T21:30:44.103Z,14.70
2023-04-08T21:33:13.524Z,15.20
2023-04-08T21:35:41.936Z,24.20
2023-04-08T21:38:10.351Z,13.02
2023-04-08T21:40:38.795Z,14.82
2023-04-08T21:43:07.206Z,14.07
2023-04-08T21:45:35.716Z,14.85
2023-04-08T21:48:04.294Z,14.23
2023-04-08T21:50:32.782Z,16.13
2023-04-08T21:53:02.075Z,19.73
2023-04-08T21:55:30.525Z,15.48
2023-04-08T21:57:59.030Z,15.20
2023-04-08T22:00:27.818Z,18.42
2023-04-08T22:02:56.415Z,16.60
2023-04-08T22:05:25.092Z,16.67
2023-04-08T22:07:54.225Z,18.23
2023-04-08T22:10:22.761Z,18.60
2023-04-08T22:12:51.390Z,17.13
2023-04-08T22:15:19.942Z,14.65
2023-04-08T22:17:48.547Z,14.90
2023-04-08T22:20:17.138Z,21.17
2023-04-08T22:22:45.640Z,22.38
2023-04-08T22:25:14.165Z,21.40
2023-04-08T22:27:42.567Z,22.23
2023-04-08T22:30:11.355Z,37.58
2023-04-08T22:32:39.909Z,24.92
2023-04-08T22:35:09.016Z,24.58
2023-04-08T22:37:37.425Z,26.65
2023-04-08T22:40:06.655Z,24.00
2023-04-08T22:42:35.721Z,29.50
2023-04-08T22:45:05.799Z,28.80
2023-04-08T22:47:34.323Z,32.42
2023-04-08T22:50:02.928Z,26.25
2023-04-08T22:52:31.373Z,33.28
2023-04-08T22:54:59.927Z,37.42
2023-04-08T22:57:28.441Z,41.47
2023-04-08T22:59:56.921Z,37.55
2023-04-08T23:02:25.664Z,40.58
2023-04-08T23:04:56.038Z,46.72
2023-04-08T23:07:24.638Z,45.78
2023-04-08T23:09:53.061Z,58.35
2023-04-08T23:12:21.580Z,73.32
2023-04-08T23:14:50.142Z,134.63
2023-04-08T23:17:18.602Z,58.28
2023-04-08T23:19:47.013Z,60.13
2023-04-08T23:22:15.801Z,57.95
2023-04-08T23:24:44.190Z,60.33
2023-04-08T23:27:12.594Z,57.45
2023-04-08T23:29:40.980Z,53.85
2023-04-08T23:32:09.506Z,57.90
2023-04-08T23:34:38.115Z,51.55
2023-04-08T23:37:06.800Z,50.97
2023-04-08T23:39:35.333Z,54.45
2023-04-08T23:42:03.839Z,58.63
2023-04-08T23:44:32.318Z,60.63
2023-04-08T23:47:00.808Z,58.58
2023-04-08T23:49:29.962Z,54.38
2023-04-08T23:51:58.541Z,68.07
2023-04-08T23:54:30.477Z,51.80
2023-04-08T23:56:59.114Z,53.70
2023-04-08T23:59:30.767Z,60.25
